Terminal Aerodrome Forecast
Issued by NWS

Home | Current Version | Previous Version | Graphics & Text | Print | Product List | Glossary On
Versions: 1 2 3 4 5 6 7 8 9 10 11 12
555
FTUS45 KGGW 211720
TAFSDY
TAF
KSDY 211720Z 2118/2218 20007KT P6SM FEW200
     FM221400 VRB03KT P6SM FEW230=

USA.gov is the U.S. government's official web portal to all federal, state and local government web resources and services.